Time;durP1;ratioP1;P1;durP2;ratioP2;P2;SDS_P1;SDS_P2;PMS_P1;PMS_P2;Temp;Humidity;BMP_temperature;BMP_pressure;BME280_temperature;BME280_humidity;BME280_pressure;Samples;Min_cycle;Max_cycle;Signal;HPM_P1;HPM_P2
2023/09/27 00:00:53;;;;;;;;;;;;;;;11.88;100.00;96228.34;10505576;28;1835;-77
2023/09/27 00:06:00;;;;;;;;;;;;;;;11.89;100.00;96232.63;10520544;28;1868;-77
2023/09/27 00:11:13;;;;;;;;;;;;;;;11.84;100.00;96235.38;10521739;28;1903;-78
2023/09/27 00:16:16;;;;;;;;;;;;;;;11.83;100.00;96228.38;10516788;28;1973;-78
2023/09/27 00:21:21;;;;;;;;;;;;;;;11.77;100.00;96228.56;10497860;28;1668;-78
2023/09/27 00:26:24;;;;;;;;;;;;;;;11.74;100.00;96218.34;10494788;28;2774;-78
2023/09/27 00:31:32;;;;;;;;;;;;;;;11.69;100.00;96216.47;10522018;28;1977;-78
2023/09/27 00:36:41;;;;;;;;;;;;;;;11.64;100.00;96217.28;10500313;28;1922;-78
2023/09/27 00:41:54;;;;;;;;;;;;;;;11.60;100.00;96210.81;10499294;28;4654;-78
2023/09/27 00:47:03;;;;;;;;;;;;;;;11.60;100.00;96215.41;10504174;28;1917;-78
2023/09/27 00:52:06;;;;;;;;;;;;;;;11.60;100.00;96212.72;10514122;28;1989;-79
2023/09/27 00:57:14;;;;;;;;;;;;;;;11.57;100.00;96207.84;10523359;28;1915;-78
2023/09/27 01:02:18;;;;;;;;;;;;;;;11.52;100.00;96205.97;10498622;28;2038;-78
2023/09/27 01:07:32;;;;;;;;;;;;;;;11.56;100.00;96204.34;10520336;28;1999;-76
2023/09/27 01:12:36;;;;;;;;;;;;;;;11.51;100.00;96203.53;10530356;28;2798;-77
2023/09/27 01:17:41;;;;;;;;;;;;;;;11.51;100.00;96195.44;10526861;28;1960;-77
2023/09/27 01:22:58;;;;;;;;;;;;;;;11.44;100.00;96201.09;10526408;28;2078;-78
2023/09/27 01:28:10;;;;;;;;;;;;;;;11.38;100.00;96202.19;10527081;28;2054;-78
2023/09/27 01:33:16;;;;;;;;;;;;;;;11.31;100.00;96191.66;10519935;28;1923;-78
2023/09/27 01:38:21;;;;;;;;;;;;;;;11.28;100.00;96189.53;10510515;28;2040;-78
2023/09/27 01:43:25;;;;;;;;;;;;;;;11.32;100.00;96181.72;10525220;28;4588;-76
2023/09/27 01:48:28;;;;;;;;;;;;;;;11.26;100.00;96180.94;10527842;28;2029;-78
2023/09/27 01:53:33;;;;;;;;;;;;;;;11.27;100.00;96174.47;10525789;28;1946;-77
2023/09/27 01:58:44;;;;;;;;;;;;;;;11.22;100.00;96176.34;10522043;28;2817;-79
2023/09/27 02:03:52;;;;;;;;;;;;;;;11.18;100.00;96173.38;10526294;28;2006;-78
2023/09/27 02:08:59;;;;;;;;;;;;;;;11.13;100.00;96159.91;10524699;28;1946;-78
2023/09/27 02:14:21;;;;;;;;;;;;;;;11.13;100.00;96167.97;10502825;28;2004;-79
2023/09/27 02:19:33;;;;;;;;;;;;;;;11.06;100.00;96170.13;10504346;28;2074;-78
2023/09/27 02:24:45;;;;;;;;;;;;;;;11.03;100.00;96174.16;10524917;28;2238;-78
2023/09/27 02:29:52;;;;;;;;;;;;;;;11.02;100.00;96174.44;10502783;28;2029;-77
2023/09/27 02:35:00;;;;;;;;;;;;;;;10.99;100.00;96186.50;10523072;28;2013;-78
2023/09/27 02:40:11;;;;;;;;;;;;;;;10.97;100.00;96180.59;10504959;28;1957;-79
2023/09/27 02:45:17;;;;;;;;;;;;;;;10.94;100.00;96177.63;10527965;28;2631;-77
2023/09/27 02:50:21;;;;;;;;;;;;;;;10.89;100.00;96178.44;10527493;28;1922;-79
2023/09/27 02:55:27;;;;;;;;;;;;;;;10.81;100.00;96179.78;10520311;28;2049;-78
2023/09/27 03:00:30;;;;;;;;;;;;;;;10.79;100.00;96181.09;10518716;28;1879;-79
2023/09/27 03:05:40;;;;;;;;;;;;;;;10.79;100.00;96175.72;10518856;28;1957;-79
2023/09/27 03:10:49;;;;;;;;;;;;;;;10.75;100.00;96175.44;10503507;28;1922;-77
2023/09/27 03:15:52;;;;;;;;;;;;;;;10.70;100.00;96188.88;10524688;28;1890;-76
2023/09/27 03:21:02;;;;;;;;;;;;;;;10.75;100.00;96188.91;10507389;28;1976;-79
2023/09/27 03:26:22;;;;;;;;;;;;;;;10.74;100.00;96197.19;10527822;28;2557;-78
2023/09/27 03:31:26;;;;;;;;;;;;;;;10.71;100.00;96195.84;10525801;28;1993;-78
2023/09/27 03:36:29;;;;;;;;;;;;;;;10.63;100.00;96209.81;10508393;28;2120;-77
2023/09/27 03:41:33;;;;;;;;;;;;;;;10.63;100.00;96219.75;10510043;28;2097;-79
2023/09/27 03:46:40;;;;;;;;;;;;;;;10.66;100.00;96225.41;10522919;28;2025;-78
2023/09/27 03:51:44;;;;;;;;;;;;;;;10.59;100.00;96214.09;10520611;28;1997;-77
2023/09/27 03:56:53;;;;;;;;;;;;;;;10.59;100.00;96224.03;10520886;28;2007;-77
2023/09/27 04:02:09;;;;;;;;;;;;;;;10.57;100.00;96224.31;10498877;28;1895;-77
2023/09/27 04:07:11;;;;;;;;;;;;;;;10.50;100.00;96221.06;10518569;28;2337;-77
2023/09/27 04:12:15;;;;;;;;;;;;;;;10.50;100.00;96215.69;10522139;28;2677;-78
2023/09/27 04:17:25;;;;;;;;;;;;;;;10.43;100.00;96215.09;10500852;28;2003;-79
2023/09/27 04:22:33;;;;;;;;;;;;;;;10.46;100.00;96220.75;10521910;28;2045;-78
2023/09/27 04:27:47;;;;;;;;;;;;;;;10.50;100.00;96229.94;10521991;28;1964;-79
2023/09/27 04:32:53;;;;;;;;;;;;;;;10.52;100.00;96248.47;10493885;28;1993;-79
2023/09/27 04:37:57;;;;;;;;;;;;;;;10.53;100.00;96248.19;10516438;28;1915;-80
2023/09/27 04:43:01;;;;;;;;;;;;;;;10.48;100.00;96253.53;10495641;28;1919;-79
2023/09/27 04:48:13;;;;;;;;;;;;;;;10.51;100.00;96244.97;10529948;28;2002;-78
2023/09/27 04:53:20;;;;;;;;;;;;;;;10.49;100.00;96247.09;10528361;28;2078;-78
2023/09/27 04:58:28;;;;;;;;;;;;;;;10.44;100.00;96243.59;10513110;28;1985;-78
2023/09/27 05:03:35;;;;;;;;;;;;;;;10.40;100.00;96250.56;10532044;28;1937;-78
2023/09/27 05:08:38;;;;;;;;;;;;;;;10.48;100.00;96258.13;10527373;28;1909;-78
2023/09/27 05:13:42;;;;;;;;;;;;;;;10.51;100.00;96269.16;10505932;28;2971;-77
2023/09/27 05:18:57;;;;;;;;;;;;;;;10.57;100.00;96264.63;10527027;28;1818;-81
2023/09/27 05:24:02;;;;;;;;;;;;;;;10.58;100.00;96266.25;10495124;28;2006;-81
2023/09/27 05:29:06;;;;;;;;;;;;;;;10.59;100.00;96262.47;10513818;28;2240;-82
2023/09/27 05:34:16;;;;;;;;;;;;;;;10.72;100.00;96256.63;10527340;28;1824;-78
2023/09/27 05:39:22;;;;;;;;;;;;;;;10.79;100.00;96276.00;10522878;28;1952;-78
2023/09/27 05:44:26;;;;;;;;;;;;;;;10.94;100.00;96277.13;10523424;28;4715;-76
2023/09/27 05:49:31;;;;;;;;;;;;;;;11.01;100.00;96277.72;10504980;28;1983;-78
2023/09/27 05:54:40;;;;;;;;;;;;;;;11.21;100.00;96269.72;10525247;28;1942;-82
2023/09/27 05:59:48;;;;;;;;;;;;;;;11.35;100.00;96278.09;10508953;28;2923;-83
2023/09/27 06:04:53;;;;;;;;;;;;;;;11.56;100.00;96276.22;10533056;28;1967;-84
2023/09/27 06:09:58;;;;;;;;;;;;;;;11.75;100.00;96282.72;10524323;28;1979;-77
2023/09/27 06:15:04;;;;;;;;;;;;;;;11.96;100.00;96278.19;10510335;28;1954;-76
2023/09/27 06:20:11;;;;;;;;;;;;;;;12.18;100.00;96288.69;10487829;28;3588;-75
2023/09/27 06:25:23;;;;;;;;;;;;;;;12.38;100.00;96294.03;10503646;28;1894;-78
2023/09/27 06:30:31;;;;;;;;;;;;;;;12.55;100.00;96292.94;10523396;28;1972;-76
2023/09/27 06:35:38;;;;;;;;;;;;;;;12.77;100.00;96304.19;10523386;28;1891;-77
2023/09/27 06:40:42;;;;;;;;;;;;;;;12.94;100.00;96302.00;10524492;28;4705;-76
2023/09/27 06:45:46;;;;;;;;;;;;;;;13.11;100.00;96296.28;10525491;28;3035;-76
2023/09/27 06:50:56;;;;;;;;;;;;;;;13.45;100.00;96296.41;10506519;28;1907;-77
2023/09/27 06:56:02;;;;;;;;;;;;;;;13.66;100.00;96301.66;10521913;28;1903;-78
2023/09/27 07:01:09;;;;;;;;;;;;;;;13.88;100.00;96299.38;10521602;28;1852;-78
2023/09/27 07:06:23;;;;;;;;;;;;;;;14.14;100.00;96304.56;10505489;28;1748;-79
2023/09/27 07:11:29;;;;;;;;;;;;;;;14.38;100.00;96304.63;10507906;28;1902;-76
2023/09/27 07:16:36;;;;;;;;;;;;;;;14.68;100.00;96307.06;10507444;28;2212;-76
2023/09/27 07:22:08;;;;;;;;;;;;;;;14.83;100.00;96303.41;10526438;28;1911;-81
2023/09/27 07:27:12;;;;;;;;;;;;;;;14.95;100.00;96298.41;10523387;28;1752;-82
2023/09/27 07:32:16;;;;;;;;;;;;;;;15.22;100.00;96302.41;10519850;28;1918;-82
2023/09/27 07:37:19;;;;;;;;;;;;;;;15.38;100.00;96304.63;10519945;28;2146;-77
2023/09/27 07:42:31;;;;;;;;;;;;;;;15.60;100.00;96301.34;10525380;28;4615;-83
2023/09/27 07:47:35;;;;;;;;;;;;;;;15.83;100.00;96293.47;10513570;28;2974;-76
2023/09/27 07:52:43;;;;;;;;;;;;;;;16.00;100.00;96285.59;10524282;28;1914;-75
2023/09/27 07:57:52;;;;;;;;;;;;;;;16.10;100.00;96288.16;10508446;28;1920;-77
2023/09/27 08:02:57;;;;;;;;;;;;;;;16.30;100.00;96297.06;10522366;28;1886;-72
2023/09/27 08:08:05;;;;;;;;;;;;;;;16.50;100.00;96302.16;10521316;28;1857;-75
2023/09/27 08:13:08;;;;;;;;;;;;;;;16.75;100.00;96306.34;10527151;28;1977;-81
2023/09/27 08:18:14;;;;;;;;;;;;;;;16.89;100.00;96299.00;10529821;28;1855;-78
2023/09/27 08:23:25;;;;;;;;;;;;;;;17.14;100.00;96299.63;10522257;28;1891;-76
2023/09/27 08:28:31;;;;;;;;;;;;;;;17.44;100.00;96284.59;10523740;28;1964;-75
2023/09/27 08:33:44;;;;;;;;;;;;;;;17.39;100.00;96285.50;10523931;28;3178;-76
2023/09/27 08:38:50;;;;;;;;;;;;;;;17.50;100.00;96286.09;10504870;28;1836;-80
2023/09/27 08:43:59;;;;;;;;;;;;;;;17.89;100.00;96287.44;10504417;28;4579;-78
2023/09/27 08:49:08;;;;;;;;;;;;;;;17.88;100.00;96275.75;10506560;28;1908;-75
2023/09/27 08:54:16;;;;;;;;;;;;;;;18.06;100.00;96276.66;10497477;28;1993;-75
2023/09/27 08:59:24;;;;;;;;;;;;;;;18.49;100.00;96268.00;10508303;28;1905;-76
2023/09/27 09:04:32;;;;;;;;;;;;;;;18.50;100.00;96264.16;10502024;28;1855;-78
2023/09/27 09:15:05;;;;;;;;;;;;;;;18.52;100.00;96248.31;10514542;28;3066;-76
2023/09/27 09:20:21;;;;;;;;;;;;;;;18.76;100.00;96251.50;10522011;28;1884;-76
2023/09/27 09:25:25;;;;;;;;;;;;;;;19.15;100.00;96241.72;10516310;28;1884;-77
2023/09/27 09:30:31;;;;;;;;;;;;;;;19.25;100.00;96246.84;10527330;28;1909;-76
2023/09/27 09:35:42;;;;;;;;;;;;;;;19.25;100.00;96246.84;10511278;28;1754;-79
2023/09/27 09:46:14;;;;;;;;;;;;;;;19.31;100.00;96237.41;10523693;28;1885;-76
2023/09/27 09:51:17;;;;;;;;;;;;;;;19.44;100.00;96231.00;10524423;28;1910;-76
2023/09/27 09:56:31;;;;;;;;;;;;;;;19.71;100.00;96226.41;10523002;28;1750;-76
2023/09/27 10:01:54;;;;;;;;;;;;;;;19.61;100.00;96218.53;10528512;28;1903;-77
2023/09/27 10:07:03;;;;;;;;;;;;;;;19.55;100.00;96227.97;10506320;28;1980;-76
2023/09/27 10:12:08;;;;;;;;;;;;;;;19.48;100.00;96223.00;10524198;28;2033;-76
2023/09/27 10:17:11;;;;;;;;;;;;;;;19.73;100.00;96218.72;10523115;28;2688;-76
2023/09/27 10:22:24;;;;;;;;;;;;;;;19.62;100.00;96210.03;10525883;28;1916;-77
2023/09/27 10:27:32;;;;;;;;;;;;;;;20.08;100.00;96205.03;10507757;28;1982;-78
2023/09/27 10:32:40;;;;;;;;;;;;;;;20.20;100.00;96205.97;10502379;28;1909;-75
2023/09/27 10:37:52;;;;;;;;;;;;;;;20.01;100.00;96194.59;10503324;28;1983;-75
2023/09/27 10:42:59;;;;;;;;;;;;;;;20.31;100.00;96189.25;10503974;28;4501;-76
2023/09/27 10:48:05;;;;;;;;;;;;;;;20.05;100.00;96170.22;10500653;28;1884;-78
2023/09/27 10:53:07;;;;;;;;;;;;;;;20.35;100.00;96168.34;10486781;28;1972;-76
2023/09/27 10:58:19;;;;;;;;;;;;;;;20.30;100.00;96158.41;10510094;28;1802;-76
2023/09/27 11:03:33;;;;;;;;;;;;;;;20.48;100.00;96153.69;10523208;28;2572;-76
2023/09/27 11:08:37;;;;;;;;;;;;;;;20.21;100.00;96143.97;10521457;28;1820;-76
2023/09/27 11:13:42;;;;;;;;;;;;;;;20.25;100.00;96132.09;10524032;28;2037;-76
2023/09/27 11:18:48;;;;;;;;;;;;;;;20.73;100.00;96130.94;10518898;28;1881;-76
2023/09/27 11:24:03;;;;;;;;;;;;;;;20.64;100.00;96132.13;10520929;28;1910;-78
2023/09/27 11:29:06;;;;;;;;;;;;;;;20.49;100.00;96125.28;10488754;28;1883;-77
2023/09/27 11:34:14;;;;;;;;;;;;;;;20.77;100.00;96114.69;10517768;28;1918;-82
2023/09/27 11:39:26;;;;;;;;;;;;;;;20.66;100.00;96105.28;10523402;28;1897;-80
2023/09/27 11:44:36;;;;;;;;;;;;;;;20.39;100.00;96104.56;10522934;28;2007;-80
2023/09/27 11:49:48;;;;;;;;;;;;;;;20.68;100.00;96092.09;10522072;28;2679;-79
2023/09/27 11:54:53;;;;;;;;;;;;;;;20.60;100.00;96082.81;10520869;28;1918;-80
2023/09/27 12:00:05;;;;;;;;;;;;;;;20.66;100.00;96069.75;10522521;28;2030;-79
2023/09/27 12:05:27;;;;;;;;;;;;;;;20.96;100.00;96052.19;10519858;28;1853;-80
2023/09/27 12:15:54;;;;;;;;;;;;;;;21.56;100.00;96037.22;10518324;28;2312;-77
2023/09/27 12:21:01;;;;;;;;;;;;;;;21.38;100.00;96024.88;10477970;28;1912;-80
2023/09/27 12:26:18;;;;;;;;;;;;;;;21.18;100.00;96020.19;10515837;28;2272;-77
2023/09/27 12:31:24;;;;;;;;;;;;;;;21.30;100.00;96006.59;10514816;28;2556;-77
2023/09/27 12:36:27;;;;;;;;;;;;;;;21.14;100.00;96003.66;10518654;28;1895;-77
2023/09/27 12:41:34;;;;;;;;;;;;;;;21.23;100.00;95984.44;10487045;28;4614;-77
2023/09/27 12:46:40;;;;;;;;;;;;;;;21.23;100.00;95971.56;10499732;28;1894;-77
2023/09/27 12:51:54;;;;;;;;;;;;;;;21.40;100.00;95973.38;10501889;28;1906;-77
2023/09/27 13:02:26;;;;;;;;;;;;;;;21.15;100.00;95960.72;10521536;28;1914;-79
2023/09/27 13:07:36;;;;;;;;;;;;;;;21.39;100.00;95949.91;10507003;28;1883;-79
2023/09/27 13:12:39;;;;;;;;;;;;;;;21.39;100.00;95938.97;10525422;28;1989;-79
2023/09/27 13:17:47;;;;;;;;;;;;;;;21.43;100.00;95933.59;10526841;28;1861;-78
2023/09/27 13:22:53;;;;;;;;;;;;;;;21.56;100.00;95922.31;10526515;28;1989;-83
2023/09/27 13:28:00;;;;;;;;;;;;;;;21.57;100.00;95918.47;10527937;28;1914;-78
2023/09/27 13:33:02;;;;;;;;;;;;;;;21.62;100.00;95909.22;10488726;28;2589;-75
2023/09/27 13:38:07;;;;;;;;;;;;;;;21.56;100.00;95914.13;10524193;28;1816;-76
2023/09/27 13:43:14;;;;;;;;;;;;;;;21.54;100.00;95907.41;10505949;28;4576;-77
2023/09/27 13:48:21;;;;;;;;;;;;;;;21.49;100.00;95896.69;10513272;28;1871;-75
2023/09/27 13:53:28;;;;;;;;;;;;;;;21.50;100.00;95890.91;10519190;28;2047;-76
2023/09/27 13:58:33;;;;;;;;;;;;;;;21.43;100.00;95879.69;10529426;28;1833;-76
2023/09/27 14:03:35;;;;;;;;;;;;;;;21.36;100.00;95870.47;10529142;28;1876;-75
2023/09/27 14:08:43;;;;;;;;;;;;;;;21.34;100.00;95870.81;10526708;28;1894;-76
2023/09/27 14:13:52;;;;;;;;;;;;;;;21.44;100.00;95869.56;10504315;28;1913;-75
2023/09/27 14:19:00;;;;;;;;;;;;;;;21.34;100.00;95868.06;10502509;28;2600;-78
2023/09/27 14:24:08;;;;;;;;;;;;;;;21.33;100.00;95852.03;10502516;28;1855;-76
2023/09/27 14:29:19;;;;;;;;;;;;;;;21.47;100.00;95841.53;10522041;28;1915;-76
2023/09/27 14:34:39;;;;;;;;;;;;;;;21.34;100.00;95832.53;10527828;28;1910;-79
2023/09/27 14:40:03;;;;;;;;;;;;;;;21.37;100.00;95831.84;10525887;28;1868;-77
2023/09/27 14:45:09;;;;;;;;;;;;;;;21.34;100.00;95824.34;10522901;28;1853;-76
2023/09/27 14:50:37;;;;;;;;;;;;;;;21.36;100.00;95811.09;10525614;28;2065;-77
2023/09/27 14:55:42;;;;;;;;;;;;;;;21.22;100.00;95808.69;10503433;28;1903;-76
2023/09/27 15:00:47;;;;;;;;;;;;;;;21.13;100.00;95809.94;10499200;28;1895;-74
2023/09/27 15:05:53;;;;;;;;;;;;;;;21.05;100.00;95806.16;10504924;28;3007;-76
2023/09/27 15:11:03;;;;;;;;;;;;;;;21.08;100.00;95801.97;10521011;28;1834;-74
2023/09/27 15:16:15;;;;;;;;;;;;;;;21.02;100.00;95802.19;10505059;28;1999;-76
2023/09/27 15:21:26;;;;;;;;;;;;;;;20.96;100.00;95805.47;10503805;28;1948;-78
2023/09/27 15:26:32;;;;;;;;;;;;;;;20.92;100.00;95799.88;10521436;28;1833;-79
2023/09/27 15:31:36;;;;;;;;;;;;;;;20.91;100.00;95794.75;10503250;28;1943;-76
2023/09/27 15:36:55;;;;;;;;;;;;;;;20.85;100.00;95794.16;10524344;28;1845;-78
2023/09/27 15:42:02;;;;;;;;;;;;;;;20.76;100.00;95788.00;10526917;28;4618;-79
2023/09/27 15:47:06;;;;;;;;;;;;;;;20.64;100.00;95793.44;10521771;28;1897;-78
2023/09/27 15:57:42;;;;;;;;;;;;;;;20.48;100.00;95796.78;10521847;28;1825;-78
2023/09/27 16:02:54;;;;;;;;;;;;;;;20.39;100.00;95792.53;10525377;28;1950;-75
2023/09/27 16:07:59;;;;;;;;;;;;;;;20.25;100.00;95793.63;10502502;28;2228;-78
2023/09/27 16:13:03;;;;;;;;;;;;;;;20.09;100.00;95797.28;10525570;28;1983;-76
2023/09/27 16:18:12;;;;;;;;;;;;;;;20.04;100.00;95794.75;10502292;28;1980;-76
2023/09/27 16:23:28;;;;;;;;;;;;;;;19.91;100.00;95789.25;10521041;28;1945;-78
2023/09/27 16:28:34;;;;;;;;;;;;;;;19.79;100.00;95796.56;10524996;28;1992;-77
2023/09/27 16:33:58;;;;;;;;;;;;;;;19.66;100.00;95807.41;10506881;28;2569;-77
2023/09/27 16:39:16;;;;;;;;;;;;;;;19.54;100.00;95801.03;10530854;28;2044;-78
2023/09/27 16:44:21;;;;;;;;;;;;;;;19.27;100.00;95802.28;10532183;28;1899;-76
2023/09/27 16:49:28;;;;;;;;;;;;;;;19.11;100.00;95807.50;10525515;28;1973;-76
2023/09/27 16:54:35;;;;;;;;;;;;;;;19.01;100.00;95816.03;10532193;28;1937;-76
2023/09/27 16:59:38;;;;;;;;;;;;;;;18.88;100.00;95813.19;10514312;28;1883;-81
2023/09/27 17:04:42;;;;;;;;;;;;;;;18.73;100.00;95805.53;10536435;28;1995;-79
2023/09/27 17:09:54;;;;;;;;;;;;;;;18.69;100.00;95820.13;10510855;28;1877;-77
2023/09/27 17:15:01;;;;;;;;;;;;;;;18.58;100.00;95830.53;10522630;28;1902;-76
2023/09/27 17:20:05;;;;;;;;;;;;;;;18.36;100.00;95835.03;10526848;28;2380;-76
2023/09/27 17:25:13;;;;;;;;;;;;;;;18.18;100.00;95849.75;10526124;28;1905;-76
2023/09/27 17:30:19;;;;;;;;;;;;;;;18.03;100.00;95842.88;10525406;28;1881;-76
2023/09/27 17:35:38;;;;;;;;;;;;;;;17.81;100.00;95857.44;10526030;28;2021;-75
2023/09/27 17:40:47;;;;;;;;;;;;;;;17.68;100.00;95868.38;10526978;28;4654;-76
2023/09/27 17:45:56;;;;;;;;;;;;;;;17.60;100.00;95869.97;10515164;28;1852;-76
2023/09/27 17:51:04;;;;;;;;;;;;;;;17.56;100.00;95872.53;10507988;28;2017;-76
2023/09/27 17:56:07;;;;;;;;;;;;;;;17.51;100.00;95874.59;10527901;28;1914;-76
2023/09/27 18:01:11;;;;;;;;;;;;;;;17.42;100.00;95873.75;10532428;28;1760;-75
2023/09/27 18:06:27;;;;;;;;;;;;;;;17.39;100.00;95871.66;10530045;28;2400;-73
2023/09/27 18:11:33;;;;;;;;;;;;;;;17.18;100.00;95887.72;10532376;28;1853;-73
2023/09/27 18:16:38;;;;;;;;;;;;;;;16.99;100.00;95886.03;10527870;28;1981;-75
2023/09/27 18:21:45;;;;;;;;;;;;;;;16.81;100.00;95888.97;10528118;28;1933;-77
2023/09/27 18:26:58;;;;;;;;;;;;;;;16.72;100.00;95884.25;10506074;28;1892;-76
2023/09/27 18:32:20;;;;;;;;;;;;;;;16.60;100.00;95894.84;10515049;28;1886;-75
2023/09/27 18:43:01;;;;;;;;;;;;;;;16.38;100.00;95892.16;10596758;27;4713;-76
2023/09/27 18:48:07;;;;;;;;;;;;;;;16.32;100.00;95883.31;10559349;28;1768;-76
2023/09/27 18:53:10;;;;;;;;;;;;;;;16.25;100.00;95884.84;10556997;28;1828;-74
2023/09/27 18:58:14;;;;;;;;;;;;;;;16.14;100.00;95882.38;10551478;28;1919;-73
2023/09/27 19:03:17;;;;;;;;;;;;;;;16.03;100.00;95880.19;10559736;28;1768;-73
2023/09/27 19:08:19;;;;;;;;;;;;;;;15.93;100.00;95883.94;10557863;28;1839;-73
2023/09/27 19:13:22;;;;;;;;;;;;;;;15.86;100.00;95883.56;10558986;28;1664;-74
2023/09/27 19:18:24;;;;;;;;;;;;;;;15.82;100.00;95887.97;10556010;28;1905;-73
2023/09/27 19:23:27;;;;;;;;;;;;;;;15.80;100.00;95887.47;10550589;28;2965;-73
2023/09/27 19:28:29;;;;;;;;;;;;;;;15.86;100.00;95891.69;10551080;28;1855;-75
2023/09/27 19:33:33;;;;;;;;;;;;;;;15.78;100.00;95895.13;10550805;28;1947;-75
2023/09/27 19:38:35;;;;;;;;;;;;;;;15.75;100.00;95903.84;10549442;28;1970;-74
2023/09/27 19:43:37;;;;;;;;;;;;;;;15.70;100.00;95912.06;10547976;28;4685;-75
2023/09/27 19:48:40;;;;;;;;;;;;;;;15.63;100.00;95909.78;10551263;28;1834;-76
2023/09/27 19:53:43;;;;;;;;;;;;;;;15.44;100.00;95919.88;10522411;28;1815;-75
2023/09/27 19:58:46;;;;;;;;;;;;;;;15.23;100.00;95909.44;10520302;28;1922;-75
2023/09/27 20:03:49;;;;;;;;;;;;;;;15.23;100.00;95914.06;10520904;28;1905;-74
2023/09/27 20:08:51;;;;;;;;;;;;;;;15.20;100.00;95914.63;10520826;28;2746;-75
2023/09/27 20:13:53;;;;;;;;;;;;;;;15.03;100.00;95913.31;10526404;28;1897;-76
2023/09/27 20:18:57;;;;;;;;;;;;;;;14.90;100.00;95916.81;10522488;28;1910;-76
2023/09/27 20:23:59;;;;;;;;;;;;;;;14.86;100.00;95926.63;10518548;28;1941;-76
2023/09/27 20:29:01;;;;;;;;;;;;;;;14.86;100.00;95932.03;10517125;28;1830;-76
2023/09/27 20:34:05;;;;;;;;;;;;;;;14.75;100.00;95936.00;10519730;28;1952;-79
2023/09/27 20:39:08;;;;;;;;;;;;;;;14.71;100.00;95941.22;10512904;28;1921;-79
2023/09/27 20:44:10;;;;;;;;;;;;;;;14.65;100.00;95938.88;10515360;28;4613;-77
2023/09/27 20:49:13;;;;;;;;;;;;;;;14.62;100.00;95945.66;10514627;28;1932;-76
2023/09/27 20:54:15;;;;;;;;;;;;;;;14.61;100.00;95944.06;10514237;28;2934;-76
2023/09/27 20:59:18;;;;;;;;;;;;;;;14.63;100.00;95941.88;10513714;28;1988;-77
2023/09/27 21:04:20;;;;;;;;;;;;;;;14.51;100.00;95955.88;10515979;28;1822;-77
2023/09/27 21:09:23;;;;;;;;;;;;;;;14.46;100.00;95958.63;10523900;28;1923;-78
2023/09/27 21:14:25;;;;;;;;;;;;;;;14.37;100.00;95949.53;10523503;28;1885;-77
2023/09/27 21:19:28;;;;;;;;;;;;;;;14.29;100.00;95944.78;10514597;28;1971;-75
2023/09/27 21:24:31;;;;;;;;;;;;;;;14.27;100.00;95939.69;10517674;28;1929;-75
2023/09/27 21:29:34;;;;;;;;;;;;;;;14.22;100.00;95937.06;10516452;28;1862;-75
2023/09/27 21:34:36;;;;;;;;;;;;;;;14.19;100.00;95942.25;10518059;28;1904;-76
2023/09/27 21:39:39;;;;;;;;;;;;;;;14.15;100.00;95925.81;10517217;28;2922;-76
2023/09/27 21:44:42;;;;;;;;;;;;;;;14.04;100.00;95927.03;10512258;28;4707;-76
2023/09/27 21:49:44;;;;;;;;;;;;;;;14.00;100.00;95924.13;10498064;28;1916;-75
2023/09/27 21:54:47;;;;;;;;;;;;;;;14.02;100.00;95916.53;10518358;28;1884;-77
2023/09/27 21:59:49;;;;;;;;;;;;;;;14.01;100.00;95924.94;10521234;28;1979;-77
2023/09/27 22:04:52;;;;;;;;;;;;;;;13.94;100.00;95917.19;10515058;28;1769;-77
2023/09/27 22:09:55;;;;;;;;;;;;;;;13.90;100.00;95916.16;10516649;28;1862;-77
2023/09/27 22:14:57;;;;;;;;;;;;;;;13.87;100.00;95910.50;10518286;28;1842;-77
2023/09/27 22:20:01;;;;;;;;;;;;;;;13.86;100.00;95914.31;10514344;28;1914;-79
2023/09/27 22:25:12;;;;;;;;;;;;;;;13.81;100.00;95912.50;10514212;28;1905;-77
2023/09/27 22:30:15;;;;;;;;;;;;;;;13.77;100.00;95914.16;10516136;28;1870;-76
2023/09/27 22:35:26;;;;;;;;;;;;;;;13.81;100.00;95909.00;10516602;28;1852;-77
2023/09/27 22:40:28;;;;;;;;;;;;;;;13.83;100.00;95902.19;10514978;28;4574;-77
2023/09/27 22:45:31;;;;;;;;;;;;;;;13.81;100.00;95912.50;10519834;28;1703;-76
2023/09/27 22:50:44;;;;;;;;;;;;;;;13.80;100.00;95916.28;10513485;28;1905;-76
2023/09/27 22:55:49;;;;;;;;;;;;;;;13.74;100.00;95914.72;10517638;28;1871;-77
2023/09/27 23:00:57;;;;;;;;;;;;;;;13.70;100.00;95902.91;10514722;28;1984;-76
2023/09/27 23:06:01;;;;;;;;;;;;;;;13.70;100.00;95913.72;10518606;28;1838;-75
2023/09/27 23:11:08;;;;;;;;;;;;;;;13.68;100.00;95913.22;10516167;28;1790;-78
2023/09/27 23:16:44;;;;;;;;;;;;;;;13.61;100.00;95916.22;10517487;28;1842;-76
2023/09/27 23:21:48;;;;;;;;;;;;;;;13.56;100.00;95920.91;10508078;28;2937;-76
2023/09/27 23:27:03;;;;;;;;;;;;;;;13.50;100.00;95912.06;10513385;28;1829;-76
2023/09/27 23:32:14;;;;;;;;;;;;;;;13.44;100.00;95911.31;10506608;28;1869;-76
2023/09/27 23:37:18;;;;;;;;;;;;;;;13.38;100.00;95911.69;10515218;28;1837;-75
2023/09/27 23:42:25;;;;;;;;;;;;;;;13.35;100.00;95926.53;10510150;28;1977;-76
2023/09/27 23:47:27;;;;;;;;;;;;;;;13.28;100.00;95928.78;10519548;28;1861;-77
2023/09/27 23:52:30;;;;;;;;;;;;;;;13.21;100.00;95936.41;10516621;28;1892;-75
2023/09/27 23:57:32;;;;;;;;;;;;;;;13.21;100.00;95928.31;10525873;28;1759;-77
